sensor_id;sensor_type;location;lat;lon;timestamp;P1;durP1;ratioP1;P2;durP2;ratioP2
2724;SDS011;1370;52.596;13.112;2023-07-31T00:00:26;5.53;;;5.27;;
2724;SDS011;1370;52.596;13.112;2023-07-31T00:02:52;8.63;;;8.23;;
2724;SDS011;1370;52.596;13.112;2023-07-31T00:05:17;11.03;;;10.30;;
2724;SDS011;1370;52.596;13.112;2023-07-31T00:07:42;10.37;;;9.90;;
2724;SDS011;1370;52.596;13.112;2023-07-31T00:10:08;8.27;;;7.97;;
2724;SDS011;1370;52.596;13.112;2023-07-31T00:12:33;10.90;;;10.47;;
2724;SDS011;1370;52.596;13.112;2023-07-31T00:14:58;8.00;;;7.43;;
2724;SDS011;1370;52.596;13.112;2023-07-31T00:17:24;12.60;;;12.10;;
2724;SDS011;1370;52.596;13.112;2023-07-31T00:19:49;8.17;;;7.60;;
2724;SDS011;1370;52.596;13.112;2023-07-31T00:22:15;10.87;;;10.23;;
2724;SDS011;1370;52.596;13.112;2023-07-31T00:24:41;10.77;;;10.20;;
2724;SDS011;1370;52.596;13.112;2023-07-31T00:27:06;11.40;;;10.83;;
2724;SDS011;1370;52.596;13.112;2023-07-31T00:29:31;9.07;;;8.53;;
2724;SDS011;1370;52.596;13.112;2023-07-31T00:31:57;7.67;;;7.37;;
2724;SDS011;1370;52.596;13.112;2023-07-31T00:34:22;10.67;;;10.10;;
2724;SDS011;1370;52.596;13.112;2023-07-31T00:36:47;8.83;;;8.33;;
2724;SDS011;1370;52.596;13.112;2023-07-31T00:39:12;11.70;;;10.90;;
2724;SDS011;1370;52.596;13.112;2023-07-31T00:41:38;10.67;;;10.27;;
2724;SDS011;1370;52.596;13.112;2023-07-31T00:44:03;12.30;;;11.80;;
2724;SDS011;1370;52.596;13.112;2023-07-31T00:46:29;10.37;;;9.60;;
2724;SDS011;1370;52.596;13.112;2023-07-31T00:48:54;10.77;;;10.13;;
2724;SDS011;1370;52.596;13.112;2023-07-31T00:51:19;9.47;;;8.90;;
2724;SDS011;1370;52.596;13.112;2023-07-31T00:53:45;10.30;;;9.60;;
2724;SDS011;1370;52.596;13.112;2023-07-31T00:56:10;11.73;;;10.60;;
2724;SDS011;1370;52.596;13.112;2023-07-31T00:58:35;9.90;;;9.50;;
2724;SDS011;1370;52.596;13.112;2023-07-31T01:01:01;9.00;;;8.50;;
2724;SDS011;1370;52.596;13.112;2023-07-31T01:03:26;7.00;;;6.53;;
2724;SDS011;1370;52.596;13.112;2023-07-31T01:08:37;10.30;;;9.60;;
2724;SDS011;1370;52.596;13.112;2023-07-31T01:11:17;11.27;;;10.67;;
2724;SDS011;1370;52.596;13.112;2023-07-31T01:13:45;5.97;;;5.47;;
2724;SDS011;1370;52.596;13.112;2023-07-31T01:16:10;10.07;;;9.53;;
2724;SDS011;1370;52.596;13.112;2023-07-31T01:18:36;26.93;;;24.20;;
2724;SDS011;1370;52.596;13.112;2023-07-31T01:21:03;11.47;;;10.70;;
2724;SDS011;1370;52.596;13.112;2023-07-31T01:23:45;8.87;;;8.13;;
2724;SDS011;1370;52.596;13.112;2023-07-31T01:26:28;9.90;;;9.50;;
2724;SDS011;1370;52.596;13.112;2023-07-31T01:28:56;12.07;;;11.57;;
2724;SDS011;1370;52.596;13.112;2023-07-31T01:31:26;12.00;;;11.27;;
2724;SDS011;1370;52.596;13.112;2023-07-31T01:33:54;9.63;;;9.23;;
2724;SDS011;1370;52.596;13.112;2023-07-31T01:36:21;8.90;;;8.30;;
2724;SDS011;1370;52.596;13.112;2023-07-31T01:38:47;11.40;;;10.70;;
2724;SDS011;1370;52.596;13.112;2023-07-31T01:41:12;15.63;;;11.50;;
2724;SDS011;1370;52.596;13.112;2023-07-31T01:43:38;10.80;;;10.33;;
2724;SDS011;1370;52.596;13.112;2023-07-31T01:46:03;10.30;;;9.60;;
2724;SDS011;1370;52.596;13.112;2023-07-31T01:51:50;12.57;;;11.83;;
2724;SDS011;1370;52.596;13.112;2023-07-31T01:54:15;11.33;;;10.63;;
2724;SDS011;1370;52.596;13.112;2023-07-31T01:56:41;8.30;;;7.80;;
2724;SDS011;1370;52.596;13.112;2023-07-31T01:59:06;10.20;;;9.80;;
2724;SDS011;1370;52.596;13.112;2023-07-31T02:01:31;11.40;;;10.70;;
2724;SDS011;1370;52.596;13.112;2023-07-31T02:03:56;11.23;;;10.53;;
2724;SDS011;1370;52.596;13.112;2023-07-31T02:06:22;13.70;;;12.93;;
2724;SDS011;1370;52.596;13.112;2023-07-31T02:08:48;8.77;;;8.17;;
2724;SDS011;1370;52.596;13.112;2023-07-31T02:11:14;12.43;;;11.47;;
2724;SDS011;1370;52.596;13.112;2023-07-31T02:13:39;155.00;;;146.63;;
2724;SDS011;1370;52.596;13.112;2023-07-31T02:16:04;56.23;;;52.63;;
2724;SDS011;1370;52.596;13.112;2023-07-31T02:18:30;48.07;;;44.83;;
2724;SDS011;1370;52.596;13.112;2023-07-31T02:20:55;60.87;;;57.03;;
2724;SDS011;1370;52.596;13.112;2023-07-31T02:23:21;68.23;;;63.70;;
2724;SDS011;1370;52.596;13.112;2023-07-31T02:25:46;64.10;;;60.03;;
2724;SDS011;1370;52.596;13.112;2023-07-31T02:28:12;73.77;;;69.53;;
2724;SDS011;1370;52.596;13.112;2023-07-31T02:30:37;62.67;;;58.53;;
2724;SDS011;1370;52.596;13.112;2023-07-31T02:33:03;59.07;;;55.03;;
2724;SDS011;1370;52.596;13.112;2023-07-31T02:35:29;62.37;;;57.97;;
2724;SDS011;1370;52.596;13.112;2023-07-31T02:37:54;65.30;;;61.03;;
2724;SDS011;1370;52.596;13.112;2023-07-31T02:40:19;61.90;;;58.10;;
2724;SDS011;1370;52.596;13.112;2023-07-31T02:42:45;59.53;;;55.93;;
2724;SDS011;1370;52.596;13.112;2023-07-31T02:45:10;63.37;;;59.17;;
2724;SDS011;1370;52.596;13.112;2023-07-31T02:47:35;65.73;;;61.23;;
2724;SDS011;1370;52.596;13.112;2023-07-31T02:50:01;58.97;;;55.03;;
2724;SDS011;1370;52.596;13.112;2023-07-31T02:52:30;68.17;;;63.63;;
2724;SDS011;1370;52.596;13.112;2023-07-31T02:54:55;61.23;;;57.13;;
2724;SDS011;1370;52.596;13.112;2023-07-31T02:57:21;63.20;;;58.97;;
2724;SDS011;1370;52.596;13.112;2023-07-31T02:59:46;56.33;;;52.43;;
2724;SDS011;1370;52.596;13.112;2023-07-31T03:02:11;65.40;;;61.40;;
2724;SDS011;1370;52.596;13.112;2023-07-31T03:04:37;59.07;;;55.23;;
2724;SDS011;1370;52.596;13.112;2023-07-31T03:07:03;58.80;;;55.10;;
2724;SDS011;1370;52.596;13.112;2023-07-31T03:09:28;59.50;;;55.83;;
2724;SDS011;1370;52.596;13.112;2023-07-31T03:11:53;57.23;;;53.53;;
2724;SDS011;1370;52.596;13.112;2023-07-31T03:14:19;54.00;;;50.50;;
2724;SDS011;1370;52.596;13.112;2023-07-31T03:16:44;56.80;;;53.10;;
2724;SDS011;1370;52.596;13.112;2023-07-31T03:19:09;61.43;;;58.23;;
2724;SDS011;1370;52.596;13.112;2023-07-31T03:21:35;52.67;;;49.33;;
2724;SDS011;1370;52.596;13.112;2023-07-31T03:24:00;63.57;;;59.37;;
2724;SDS011;1370;52.596;13.112;2023-07-31T03:26:25;46.30;;;43.23;;
2724;SDS011;1370;52.596;13.112;2023-07-31T03:28:51;56.80;;;53.20;;
2724;SDS011;1370;52.596;13.112;2023-07-31T03:31:16;52.20;;;48.87;;
2724;SDS011;1370;52.596;13.112;2023-07-31T03:33:41;54.73;;;51.23;;
2724;SDS011;1370;52.596;13.112;2023-07-31T03:36:06;41.47;;;39.00;;
2724;SDS011;1370;52.596;13.112;2023-07-31T03:38:33;43.87;;;41.13;;
2724;SDS011;1370;52.596;13.112;2023-07-31T03:40:58;45.23;;;42.60;;
2724;SDS011;1370;52.596;13.112;2023-07-31T03:43:24;39.60;;;37.33;;
2724;SDS011;1370;52.596;13.112;2023-07-31T03:45:50;43.67;;;40.83;;
2724;SDS011;1370;52.596;13.112;2023-07-31T03:48:15;43.63;;;41.23;;
2724;SDS011;1370;52.596;13.112;2023-07-31T03:50:41;39.87;;;37.20;;
2724;SDS011;1370;52.596;13.112;2023-07-31T03:53:06;51.20;;;48.07;;
2724;SDS011;1370;52.596;13.112;2023-07-31T03:55:31;40.63;;;38.30;;
2724;SDS011;1370;52.596;13.112;2023-07-31T03:57:57;42.97;;;40.37;;
2724;SDS011;1370;52.596;13.112;2023-07-31T04:00:22;39.97;;;37.37;;
2724;SDS011;1370;52.596;13.112;2023-07-31T04:02:47;42.03;;;39.00;;
2724;SDS011;1370;52.596;13.112;2023-07-31T04:05:13;34.90;;;32.70;;
2724;SDS011;1370;52.596;13.112;2023-07-31T04:07:38;37.50;;;34.80;;
2724;SDS011;1370;52.596;13.112;2023-07-31T04:10:03;35.23;;;32.20;;
2724;SDS011;1370;52.596;13.112;2023-07-31T04:12:29;22.63;;;21.10;;
2724;SDS011;1370;52.596;13.112;2023-07-31T04:14:54;13.23;;;12.23;;
2724;SDS011;1370;52.596;13.112;2023-07-31T04:17:19;10.60;;;9.80;;
2724;SDS011;1370;52.596;13.112;2023-07-31T04:19:45;13.83;;;12.47;;
2724;SDS011;1370;52.596;13.112;2023-07-31T04:22:10;15.50;;;14.47;;
2724;SDS011;1370;52.596;13.112;2023-07-31T04:24:35;12.53;;;11.47;;
2724;SDS011;1370;52.596;13.112;2023-07-31T04:27:01;14.27;;;13.10;;
2724;SDS011;1370;52.596;13.112;2023-07-31T04:29:26;15.20;;;13.87;;
2724;SDS011;1370;52.596;13.112;2023-07-31T04:31:51;14.27;;;13.20;;
2724;SDS011;1370;52.596;13.112;2023-07-31T04:34:16;17.90;;;13.97;;
2724;SDS011;1370;52.596;13.112;2023-07-31T04:36:42;15.27;;;14.23;;
2724;SDS011;1370;52.596;13.112;2023-07-31T04:39:07;15.60;;;14.53;;
2724;SDS011;1370;52.596;13.112;2023-07-31T04:41:32;12.07;;;10.80;;
2724;SDS011;1370;52.596;13.112;2023-07-31T04:43:58;13.97;;;12.60;;
2724;SDS011;1370;52.596;13.112;2023-07-31T04:46:23;13.03;;;12.13;;
2724;SDS011;1370;52.596;13.112;2023-07-31T04:48:48;16.77;;;9.53;;
2724;SDS011;1370;52.596;13.112;2023-07-31T04:51:14;7.27;;;6.53;;
2724;SDS011;1370;52.596;13.112;2023-07-31T04:53:39;8.43;;;7.63;;
2724;SDS011;1370;52.596;13.112;2023-07-31T04:56:04;8.83;;;8.07;;
2724;SDS011;1370;52.596;13.112;2023-07-31T04:58:30;8.40;;;7.33;;
2724;SDS011;1370;52.596;13.112;2023-07-31T05:00:56;9.00;;;8.13;;
2724;SDS011;1370;52.596;13.112;2023-07-31T05:03:21;12.70;;;9.73;;
2724;SDS011;1370;52.596;13.112;2023-07-31T05:05:47;12.07;;;11.10;;
2724;SDS011;1370;52.596;13.112;2023-07-31T05:08:12;8.73;;;7.90;;
2724;SDS011;1370;52.596;13.112;2023-07-31T05:10:37;6.97;;;6.47;;
2724;SDS011;1370;52.596;13.112;2023-07-31T05:13:03;8.17;;;7.40;;
2724;SDS011;1370;52.596;13.112;2023-07-31T05:15:28;8.03;;;7.33;;
2724;SDS011;1370;52.596;13.112;2023-07-31T05:17:53;9.83;;;9.00;;
2724;SDS011;1370;52.596;13.112;2023-07-31T05:20:19;8.03;;;7.23;;
2724;SDS011;1370;52.596;13.112;2023-07-31T05:22:44;9.47;;;8.47;;
2724;SDS011;1370;52.596;13.112;2023-07-31T05:25:09;8.17;;;7.40;;
2724;SDS011;1370;52.596;13.112;2023-07-31T05:27:35;9.53;;;8.63;;
2724;SDS011;1370;52.596;13.112;2023-07-31T05:30:00;6.80;;;6.20;;
2724;SDS011;1370;52.596;13.112;2023-07-31T05:32:25;8.80;;;8.00;;
2724;SDS011;1370;52.596;13.112;2023-07-31T05:34:51;8.37;;;7.57;;
2724;SDS011;1370;52.596;13.112;2023-07-31T05:37:17;8.90;;;6.63;;
2724;SDS011;1370;52.596;13.112;2023-07-31T05:39:42;7.63;;;6.83;;
2724;SDS011;1370;52.596;13.112;2023-07-31T05:42:08;7.97;;;7.27;;
2724;SDS011;1370;52.596;13.112;2023-07-31T05:44:33;9.40;;;7.87;;
2724;SDS011;1370;52.596;13.112;2023-07-31T05:46:58;7.73;;;5.70;;
2724;SDS011;1370;52.596;13.112;2023-07-31T05:49:24;8.10;;;7.40;;
2724;SDS011;1370;52.596;13.112;2023-07-31T05:51:49;6.30;;;5.80;;
2724;SDS011;1370;52.596;13.112;2023-07-31T05:54:14;7.10;;;6.47;;
2724;SDS011;1370;52.596;13.112;2023-07-31T05:56:40;7.17;;;6.50;;
2724;SDS011;1370;52.596;13.112;2023-07-31T05:59:05;8.03;;;6.63;;
2724;SDS011;1370;52.596;13.112;2023-07-31T06:01:30;10.47;;;6.47;;
2724;SDS011;1370;52.596;13.112;2023-07-31T06:03:56;7.53;;;6.90;;
2724;SDS011;1370;52.596;13.112;2023-07-31T06:06:21;8.97;;;4.80;;
2724;SDS011;1370;52.596;13.112;2023-07-31T06:08:46;6.37;;;4.73;;
2724;SDS011;1370;52.596;13.112;2023-07-31T06:11:11;10.33;;;6.43;;
2724;SDS011;1370;52.596;13.112;2023-07-31T06:13:37;10.23;;;5.70;;
2724;SDS011;1370;52.596;13.112;2023-07-31T06:16:02;7.77;;;7.17;;
2724;SDS011;1370;52.596;13.112;2023-07-31T06:18:30;9.10;;;4.83;;
2724;SDS011;1370;52.596;13.112;2023-07-31T06:20:59;11.20;;;5.40;;
2724;SDS011;1370;52.596;13.112;2023-07-31T06:23:24;6.00;;;5.50;;
2724;SDS011;1370;52.596;13.112;2023-07-31T06:25:49;9.83;;;5.83;;
2724;SDS011;1370;52.596;13.112;2023-07-31T06:28:15;8.63;;;4.73;;
2724;SDS011;1370;52.596;13.112;2023-07-31T06:30:40;5.40;;;5.00;;
2724;SDS011;1370;52.596;13.112;2023-07-31T06:33:05;5.77;;;4.60;;
2724;SDS011;1370;52.596;13.112;2023-07-31T06:35:30;10.03;;;5.20;;
2724;SDS011;1370;52.596;13.112;2023-07-31T06:37:56;9.83;;;5.20;;
2724;SDS011;1370;52.596;13.112;2023-07-31T06:40:21;4.97;;;3.70;;
2724;SDS011;1370;52.596;13.112;2023-07-31T06:42:47;5.40;;;3.50;;
2724;SDS011;1370;52.596;13.112;2023-07-31T06:45:12;4.07;;;3.70;;
2724;SDS011;1370;52.596;13.112;2023-07-31T06:47:38;5.10;;;4.73;;
2724;SDS011;1370;52.596;13.112;2023-07-31T06:50:03;9.17;;;4.90;;
2724;SDS011;1370;52.596;13.112;2023-07-31T06:52:29;7.63;;;4.10;;
2724;SDS011;1370;52.596;13.112;2023-07-31T06:55:08;9.70;;;4.00;;
2724;SDS011;1370;52.596;13.112;2023-07-31T06:57:43;6.87;;;4.00;;
2724;SDS011;1370;52.596;13.112;2023-07-31T07:00:08;4.60;;;4.30;;
2724;SDS011;1370;52.596;13.112;2023-07-31T07:02:34;4.10;;;2.70;;
2724;SDS011;1370;52.596;13.112;2023-07-31T07:04:59;4.40;;;4.00;;
2724;SDS011;1370;52.596;13.112;2023-07-31T07:07:25;4.50;;;4.10;;
2724;SDS011;1370;52.596;13.112;2023-07-31T07:09:50;4.20;;;3.90;;
2724;SDS011;1370;52.596;13.112;2023-07-31T07:12:15;7.00;;;3.70;;
2724;SDS011;1370;52.596;13.112;2023-07-31T07:14:41;4.07;;;3.77;;
2724;SDS011;1370;52.596;13.112;2023-07-31T07:17:06;6.03;;;3.87;;
2724;SDS011;1370;52.596;13.112;2023-07-31T07:19:31;4.33;;;4.03;;
2724;SDS011;1370;52.596;13.112;2023-07-31T07:21:57;8.83;;;3.50;;
2724;SDS011;1370;52.596;13.112;2023-07-31T07:24:22;6.27;;;3.27;;
2724;SDS011;1370;52.596;13.112;2023-07-31T07:26:47;4.70;;;3.47;;
2724;SDS011;1370;52.596;13.112;2023-07-31T07:29:12;4.30;;;3.53;;
2724;SDS011;1370;52.596;13.112;2023-07-31T07:31:38;4.80;;;4.00;;
2724;SDS011;1370;52.596;13.112;2023-07-31T07:34:03;5.37;;;3.80;;
2724;SDS011;1370;52.596;13.112;2023-07-31T07:36:28;5.33;;;4.83;;
2724;SDS011;1370;52.596;13.112;2023-07-31T07:38:54;4.83;;;4.40;;
2724;SDS011;1370;52.596;13.112;2023-07-31T07:41:19;4.23;;;3.40;;
2724;SDS011;1370;52.596;13.112;2023-07-31T07:43:44;7.63;;;3.70;;
2724;SDS011;1370;52.596;13.112;2023-07-31T07:46:09;3.67;;;3.37;;
2724;SDS011;1370;52.596;13.112;2023-07-31T07:48:35;4.63;;;3.57;;
2724;SDS011;1370;52.596;13.112;2023-07-31T07:51:01;4.00;;;3.67;;
2724;SDS011;1370;52.596;13.112;2023-07-31T07:53:26;4.67;;;3.87;;
2724;SDS011;1370;52.596;13.112;2023-07-31T07:55:51;4.37;;;3.97;;
2724;SDS011;1370;52.596;13.112;2023-07-31T07:58:17;4.40;;;4.10;;
2724;SDS011;1370;52.596;13.112;2023-07-31T08:00:47;4.43;;;4.00;;
2724;SDS011;1370;52.596;13.112;2023-07-31T08:03:13;4.70;;;4.30;;
2724;SDS011;1370;52.596;13.112;2023-07-31T08:05:38;7.03;;;3.40;;
2724;SDS011;1370;52.596;13.112;2023-07-31T08:08:04;5.23;;;4.37;;
2724;SDS011;1370;52.596;13.112;2023-07-31T08:10:29;3.63;;;3.33;;
2724;SDS011;1370;52.596;13.112;2023-07-31T08:12:54;6.93;;;3.43;;
2724;SDS011;1370;52.596;13.112;2023-07-31T08:15:19;3.30;;;3.10;;
2724;SDS011;1370;52.596;13.112;2023-07-31T08:17:45;3.53;;;3.23;;
2724;SDS011;1370;52.596;13.112;2023-07-31T08:20:10;3.80;;;3.00;;
2724;SDS011;1370;52.596;13.112;2023-07-31T08:22:36;4.00;;;3.00;;
2724;SDS011;1370;52.596;13.112;2023-07-31T08:25:01;5.10;;;4.70;;
2724;SDS011;1370;52.596;13.112;2023-07-31T08:27:27;3.20;;;2.90;;
2724;SDS011;1370;52.596;13.112;2023-07-31T08:29:53;3.53;;;2.77;;
2724;SDS011;1370;52.596;13.112;2023-07-31T08:32:18;4.80;;;3.90;;
2724;SDS011;1370;52.596;13.112;2023-07-31T08:34:43;3.00;;;2.63;;
2724;SDS011;1370;52.596;13.112;2023-07-31T08:37:09;3.60;;;3.40;;
2724;SDS011;1370;52.596;13.112;2023-07-31T08:39:35;2.93;;;2.73;;
2724;SDS011;1370;52.596;13.112;2023-07-31T08:42:07;4.97;;;3.63;;
2724;SDS011;1370;52.596;13.112;2023-07-31T08:44:33;4.70;;;2.77;;
2724;SDS011;1370;52.596;13.112;2023-07-31T08:46:59;3.60;;;3.30;;
2724;SDS011;1370;52.596;13.112;2023-07-31T08:49:24;4.70;;;2.97;;
2724;SDS011;1370;52.596;13.112;2023-07-31T08:51:50;3.50;;;3.30;;
2724;SDS011;1370;52.596;13.112;2023-07-31T08:54:17;4.83;;;4.53;;
2724;SDS011;1370;52.596;13.112;2023-07-31T08:56:42;4.13;;;3.83;;
2724;SDS011;1370;52.596;13.112;2023-07-31T08:59:08;3.43;;;3.23;;
2724;SDS011;1370;52.596;13.112;2023-07-31T09:01:36;4.30;;;3.90;;
2724;SDS011;1370;52.596;13.112;2023-07-31T09:04:06;3.30;;;2.40;;
2724;SDS011;1370;52.596;13.112;2023-07-31T09:06:32;2.87;;;2.67;;
2724;SDS011;1370;52.596;13.112;2023-07-31T09:08:58;2.97;;;2.77;;
2724;SDS011;1370;52.596;13.112;2023-07-31T09:11:24;2.37;;;2.17;;
2724;SDS011;1370;52.596;13.112;2023-07-31T09:13:50;3.30;;;3.03;;
2724;SDS011;1370;52.596;13.112;2023-07-31T09:16:15;4.53;;;3.53;;
2724;SDS011;1370;52.596;13.112;2023-07-31T09:18:53;2.60;;;2.40;;
2724;SDS011;1370;52.596;13.112;2023-07-31T09:21:21;3.10;;;2.90;;
2724;SDS011;1370;52.596;13.112;2023-07-31T09:23:47;3.00;;;2.27;;
2724;SDS011;1370;52.596;13.112;2023-07-31T09:26:35;1.80;;;1.50;;
2724;SDS011;1370;52.596;13.112;2023-07-31T09:29:01;2.43;;;2.00;;
2724;SDS011;1370;52.596;13.112;2023-07-31T09:31:33;7.13;;;3.47;;
2724;SDS011;1370;52.596;13.112;2023-07-31T09:34:03;2.10;;;1.90;;
2724;SDS011;1370;52.596;13.112;2023-07-31T09:36:29;2.30;;;2.13;;
2724;SDS011;1370;52.596;13.112;2023-07-31T09:38:56;1.83;;;1.70;;
2724;SDS011;1370;52.596;13.112;2023-07-31T09:41:27;2.30;;;2.10;;
2724;SDS011;1370;52.596;13.112;2023-07-31T09:43:55;3.73;;;2.60;;
2724;SDS011;1370;52.596;13.112;2023-07-31T09:46:20;3.40;;;3.20;;
2724;SDS011;1370;52.596;13.112;2023-07-31T09:48:46;2.23;;;1.90;;
2724;SDS011;1370;52.596;13.112;2023-07-31T09:51:11;3.57;;;2.93;;
2724;SDS011;1370;52.596;13.112;2023-07-31T09:53:37;3.10;;;2.70;;
2724;SDS011;1370;52.596;13.112;2023-07-31T09:56:02;2.83;;;2.63;;
2724;SDS011;1370;52.596;13.112;2023-07-31T09:58:28;4.23;;;2.30;;
2724;SDS011;1370;52.596;13.112;2023-07-31T10:00:54;2.17;;;1.97;;
2724;SDS011;1370;52.596;13.112;2023-07-31T10:03:20;2.97;;;2.77;;
2724;SDS011;1370;52.596;13.112;2023-07-31T10:05:46;3.00;;;2.73;;
2724;SDS011;1370;52.596;13.112;2023-07-31T10:08:15;6.53;;;2.60;;
2724;SDS011;1370;52.596;13.112;2023-07-31T10:10:41;3.33;;;2.83;;
2724;SDS011;1370;52.596;13.112;2023-07-31T10:13:07;2.10;;;1.90;;
2724;SDS011;1370;52.596;13.112;2023-07-31T10:15:33;2.47;;;2.27;;
2724;SDS011;1370;52.596;13.112;2023-07-31T10:17:59;3.43;;;3.23;;
2724;SDS011;1370;52.596;13.112;2023-07-31T10:20:25;3.10;;;2.33;;
2724;SDS011;1370;52.596;13.112;2023-07-31T10:22:52;2.53;;;2.33;;
2724;SDS011;1370;52.596;13.112;2023-07-31T10:25:19;3.87;;;3.53;;
2724;SDS011;1370;52.596;13.112;2023-07-31T10:27:44;2.83;;;2.63;;
2724;SDS011;1370;52.596;13.112;2023-07-31T10:30:13;4.00;;;2.60;;
2724;SDS011;1370;52.596;13.112;2023-07-31T10:32:40;4.07;;;3.77;;
2724;SDS011;1370;52.596;13.112;2023-07-31T10:35:07;3.60;;;3.30;;
2724;SDS011;1370;52.596;13.112;2023-07-31T10:37:37;4.53;;;3.67;;
2724;SDS011;1370;52.596;13.112;2023-07-31T10:40:04;6.00;;;4.20;;
2724;SDS011;1370;52.596;13.112;2023-07-31T10:44:57;5.30;;;4.03;;
2724;SDS011;1370;52.596;13.112;2023-07-31T10:47:23;8.77;;;3.87;;
2724;SDS011;1370;52.596;13.112;2023-07-31T10:49:48;3.83;;;3.40;;
2724;SDS011;1370;52.596;13.112;2023-07-31T10:52:14;4.73;;;4.30;;
2724;SDS011;1370;52.596;13.112;2023-07-31T10:54:47;4.63;;;4.07;;
2724;SDS011;1370;52.596;13.112;2023-07-31T10:57:19;6.60;;;4.30;;
2724;SDS011;1370;52.596;13.112;2023-07-31T10:59:45;11.07;;;5.10;;
2724;SDS011;1370;52.596;13.112;2023-07-31T11:02:23;6.73;;;4.63;;
2724;SDS011;1370;52.596;13.112;2023-07-31T11:05:06;4.57;;;4.10;;
2724;SDS011;1370;52.596;13.112;2023-07-31T11:07:48;4.03;;;3.73;;
2724;SDS011;1370;52.596;13.112;2023-07-31T11:10:20;5.23;;;4.53;;
2724;SDS011;1370;52.596;13.112;2023-07-31T11:12:47;5.23;;;4.83;;
2724;SDS011;1370;52.596;13.112;2023-07-31T11:15:13;4.50;;;4.20;;
2724;SDS011;1370;52.596;13.112;2023-07-31T11:17:39;6.80;;;4.70;;
2724;SDS011;1370;52.596;13.112;2023-07-31T11:20:05;7.03;;;5.20;;
2724;SDS011;1370;52.596;13.112;2023-07-31T11:22:32;4.80;;;4.40;;
2724;SDS011;1370;52.596;13.112;2023-07-31T11:24:57;6.10;;;5.40;;
2724;SDS011;1370;52.596;13.112;2023-07-31T11:27:23;7.67;;;4.73;;
2724;SDS011;1370;52.596;13.112;2023-07-31T11:29:50;9.30;;;6.20;;
2724;SDS011;1370;52.596;13.112;2023-07-31T11:32:16;6.30;;;5.70;;
2724;SDS011;1370;52.596;13.112;2023-07-31T11:34:52;6.10;;;5.50;;
2724;SDS011;1370;52.596;13.112;2023-07-31T11:37:18;9.90;;;5.47;;
2724;SDS011;1370;52.596;13.112;2023-07-31T11:39:43;9.57;;;5.17;;
2724;SDS011;1370;52.596;13.112;2023-07-31T11:42:08;6.17;;;5.67;;
2724;SDS011;1370;52.596;13.112;2023-07-31T11:44:38;7.97;;;5.00;;
2724;SDS011;1370;52.596;13.112;2023-07-31T11:47:05;5.63;;;4.50;;
2724;SDS011;1370;52.596;13.112;2023-07-31T11:49:30;5.83;;;5.23;;
2724;SDS011;1370;52.596;13.112;2023-07-31T11:51:56;14.10;;;7.33;;
2724;SDS011;1370;52.596;13.112;2023-07-31T11:54:21;9.40;;;6.37;;
2724;SDS011;1370;52.596;13.112;2023-07-31T11:56:47;13.27;;;6.27;;
2724;SDS011;1370;52.596;13.112;2023-07-31T11:59:12;6.70;;;6.10;;
2724;SDS011;1370;52.596;13.112;2023-07-31T12:01:38;9.60;;;7.03;;
2724;SDS011;1370;52.596;13.112;2023-07-31T12:04:03;6.40;;;5.83;;
2724;SDS011;1370;52.596;13.112;2023-07-31T12:06:38;6.27;;;4.57;;
2724;SDS011;1370;52.596;13.112;2023-07-31T12:09:03;7.07;;;5.43;;
2724;SDS011;1370;52.596;13.112;2023-07-31T12:11:30;5.60;;;5.10;;
2724;SDS011;1370;52.596;13.112;2023-07-31T12:13:55;6.27;;;5.60;;
2724;SDS011;1370;52.596;13.112;2023-07-31T12:16:20;7.90;;;5.03;;
2724;SDS011;1370;52.596;13.112;2023-07-31T12:18:45;5.87;;;5.30;;
2724;SDS011;1370;52.596;13.112;2023-07-31T12:21:14;6.30;;;4.93;;
2724;SDS011;1370;52.596;13.112;2023-07-31T12:23:40;7.17;;;6.47;;
2724;SDS011;1370;52.596;13.112;2023-07-31T12:26:11;5.47;;;5.17;;
2724;SDS011;1370;52.596;13.112;2023-07-31T12:28:44;5.43;;;4.83;;
2724;SDS011;1370;52.596;13.112;2023-07-31T12:31:12;5.77;;;5.17;;
2724;SDS011;1370;52.596;13.112;2023-07-31T12:33:39;5.47;;;4.97;;
2724;SDS011;1370;52.596;13.112;2023-07-31T12:36:09;5.73;;;5.23;;
2724;SDS011;1370;52.596;13.112;2023-07-31T12:38:35;5.67;;;4.27;;
2724;SDS011;1370;52.596;13.112;2023-07-31T12:41:01;6.03;;;5.63;;
2724;SDS011;1370;52.596;13.112;2023-07-31T12:43:26;5.67;;;5.17;;
2724;SDS011;1370;52.596;13.112;2023-07-31T12:45:53;5.80;;;5.30;;
2724;SDS011;1370;52.596;13.112;2023-07-31T12:48:19;4.83;;;4.43;;
2724;SDS011;1370;52.596;13.112;2023-07-31T12:50:44;6.33;;;5.00;;
2724;SDS011;1370;52.596;13.112;2023-07-31T12:53:09;5.10;;;4.80;;
2724;SDS011;1370;52.596;13.112;2023-07-31T12:55:34;5.20;;;4.70;;
2724;SDS011;1370;52.596;13.112;2023-07-31T12:58:01;12.10;;;5.70;;
2724;SDS011;1370;52.596;13.112;2023-07-31T13:00:26;5.60;;;3.93;;
2724;SDS011;1370;52.596;13.112;2023-07-31T13:02:52;5.80;;;5.20;;
2724;SDS011;1370;52.596;13.112;2023-07-31T13:05:17;8.10;;;4.80;;
2724;SDS011;1370;52.596;13.112;2023-07-31T13:07:44;6.20;;;5.00;;
2724;SDS011;1370;52.596;13.112;2023-07-31T13:10:09;5.63;;;4.80;;
2724;SDS011;1370;52.596;13.112;2023-07-31T13:12:35;4.90;;;4.30;;
2724;SDS011;1370;52.596;13.112;2023-07-31T13:15:00;5.30;;;4.33;;
2724;SDS011;1370;52.596;13.112;2023-07-31T13:17:25;7.10;;;4.13;;
2724;SDS011;1370;52.596;13.112;2023-07-31T13:19:51;4.40;;;4.00;;
2724;SDS011;1370;52.596;13.112;2023-07-31T13:22:16;8.07;;;4.90;;
2724;SDS011;1370;52.596;13.112;2023-07-31T13:24:42;5.30;;;4.43;;
2724;SDS011;1370;52.596;13.112;2023-07-31T13:27:07;5.53;;;3.50;;
2724;SDS011;1370;52.596;13.112;2023-07-31T13:29:32;8.90;;;3.50;;
2724;SDS011;1370;52.596;13.112;2023-07-31T13:31:58;6.37;;;3.83;;
2724;SDS011;1370;52.596;13.112;2023-07-31T13:34:23;4.10;;;3.20;;
2724;SDS011;1370;52.596;13.112;2023-07-31T13:36:49;7.27;;;4.30;;
2724;SDS011;1370;52.596;13.112;2023-07-31T13:39:14;4.07;;;3.77;;
2724;SDS011;1370;52.596;13.112;2023-07-31T13:41:39;4.40;;;3.57;;
2724;SDS011;1370;52.596;13.112;2023-07-31T13:44:05;5.47;;;3.90;;
2724;SDS011;1370;52.596;13.112;2023-07-31T13:46:30;4.07;;;3.77;;
2724;SDS011;1370;52.596;13.112;2023-07-31T13:48:57;4.43;;;4.07;;
2724;SDS011;1370;52.596;13.112;2023-07-31T13:51:22;4.20;;;3.80;;
2724;SDS011;1370;52.596;13.112;2023-07-31T13:53:47;3.97;;;3.60;;
2724;SDS011;1370;52.596;13.112;2023-07-31T13:56:13;3.60;;;3.23;;
2724;SDS011;1370;52.596;13.112;2023-07-31T13:58:38;4.80;;;4.40;;
2724;SDS011;1370;52.596;13.112;2023-07-31T14:01:03;3.73;;;3.43;;
2724;SDS011;1370;52.596;13.112;2023-07-31T14:03:29;4.30;;;2.90;;
2724;SDS011;1370;52.596;13.112;2023-07-31T14:05:55;3.30;;;3.00;;
2724;SDS011;1370;52.596;13.112;2023-07-31T14:08:20;5.47;;;3.80;;
2724;SDS011;1370;52.596;13.112;2023-07-31T14:10:46;5.20;;;3.87;;
2724;SDS011;1370;52.596;13.112;2023-07-31T14:13:11;3.90;;;3.60;;
2724;SDS011;1370;52.596;13.112;2023-07-31T14:15:36;5.10;;;4.47;;
2724;SDS011;1370;52.596;13.112;2023-07-31T14:18:02;5.33;;;4.93;;
2724;SDS011;1370;52.596;13.112;2023-07-31T14:20:27;7.60;;;4.63;;
2724;SDS011;1370;52.596;13.112;2023-07-31T14:22:53;4.20;;;3.23;;
2724;SDS011;1370;52.596;13.112;2023-07-31T14:25:18;4.53;;;3.47;;
2724;SDS011;1370;52.596;13.112;2023-07-31T14:27:43;4.07;;;3.77;;
2724;SDS011;1370;52.596;13.112;2023-07-31T14:30:08;4.40;;;4.10;;
2724;SDS011;1370;52.596;13.112;2023-07-31T14:32:34;442.77;;;169.77;;
2724;SDS011;1370;52.596;13.112;2023-07-31T14:34:59;250.83;;;89.43;;
2724;SDS011;1370;52.596;13.112;2023-07-31T14:37:25;65.87;;;29.23;;
2724;SDS011;1370;52.596;13.112;2023-07-31T14:39:52;171.63;;;60.13;;
2724;SDS011;1370;52.596;13.112;2023-07-31T14:42:17;14.40;;;7.90;;
2724;SDS011;1370;52.596;13.112;2023-07-31T14:44:44;6.73;;;5.10;;
2724;SDS011;1370;52.596;13.112;2023-07-31T14:47:09;151.63;;;49.37;;
2724;SDS011;1370;52.596;13.112;2023-07-31T14:49:34;52.43;;;38.70;;
2724;SDS011;1370;52.596;13.112;2023-07-31T14:51:59;31.47;;;24.13;;
2724;SDS011;1370;52.596;13.112;2023-07-31T14:54:25;40.37;;;35.10;;